Time;durP1;ratioP1;P1;durP2;ratioP2;P2;SDS_P1;SDS_P2;PMS_P1;PMS_P2;Temp;Humidity;BMP_temperature;BMP_pressure;BME280_temperature;BME280_humidity;BME280_pressure;Samples;Min_cycle;Max_cycle;Signal;HPM_P1;HPM_P2
2021/10/13 00:00:07;;;;;;;7.60;3.75;;;7.90;92.10;;;;;;5032032;28;20021;-75
2021/10/13 00:02:33;;;;;;;15.07;3.80;;;7.80;92.10;;;;;;5022122;28;20030;-75
2021/10/13 00:04:58;;;;;;;8.85;3.72;;;7.90;92.20;;;;;;5007725;28;20041;-75
2021/10/13 00:07:24;;;;;;;10.77;3.53;;;7.80;92.20;;;;;;4994521;28;20414;-75
2021/10/13 00:09:50;;;;;;;6.95;3.33;;;7.80;92.40;;;;;;5026111;28;20072;-75
2021/10/13 00:12:16;;;;;;;10.45;4.20;;;7.80;92.10;;;;;;5015711;28;20037;-75
2021/10/13 00:14:42;;;;;;;13.27;3.60;;;7.80;92.20;;;;;;5028437;28;20025;-75
2021/10/13 00:17:08;;;;;;;8.18;3.65;;;7.80;92.20;;;;;;5019165;28;20045;-75
2021/10/13 00:19:33;;;;;;;8.23;3.28;;;7.80;92.20;;;;;;5027365;28;20033;-74
2021/10/13 00:21:59;;;;;;;7.75;3.33;;;7.70;92.20;;;;;;5020244;28;20040;-75
2021/10/13 00:24:25;;;;;;;10.05;3.55;;;7.70;92.20;;;;;;5050115;28;20035;-75
2021/10/13 00:26:50;;;;;;;9.90;4.05;;;7.70;92.20;;;;;;5007453;28;20112;-74
2021/10/13 00:29:16;;;;;;;10.35;3.88;;;7.70;92.10;;;;;;5030356;28;20121;-75
2021/10/13 00:31:42;;;;;;;11.50;3.40;;;7.70;92.20;;;;;;5035247;28;20049;-74
2021/10/13 00:34:07;;;;;;;10.00;3.80;;;7.70;92.20;;;;;;5029798;28;20050;-74
2021/10/13 00:36:33;;;;;;;9.52;3.40;;;7.70;92.20;;;;;;5035316;28;20029;-74
2021/10/13 00:38:59;;;;;;;10.05;3.67;;;7.60;92.20;;;;;;5019151;28;20024;-74
2021/10/13 00:41:24;;;;;;;11.07;3.80;;;7.70;92.20;;;;;;5046528;28;20534;-74
2021/10/13 00:43:50;;;;;;;11.15;3.70;;;7.60;92.20;;;;;;5029638;28;20440;-74
2021/10/13 00:46:16;;;;;;;9.52;3.92;;;7.60;92.20;;;;;;5013629;28;20051;-75
2021/10/13 00:48:41;;;;;;;10.07;3.50;;;7.60;92.20;;;;;;5022082;28;20034;-75
2021/10/13 00:51:08;;;;;;;12.40;3.67;;;7.60;92.30;;;;;;5028369;28;20481;-75
2021/10/13 00:53:34;;;;;;;10.52;3.67;;;7.60;92.30;;;;;;5003821;28;20076;-74
2021/10/13 00:56:00;;;;;;;13.18;3.20;;;7.50;92.30;;;;;;5030832;28;20033;-75
2021/10/13 00:58:26;;;;;;;8.77;3.70;;;7.50;92.30;;;;;;5026469;28;20485;-75
2021/10/13 01:01:01;;;;;;;8.70;3.33;;;7.50;92.30;;;;;;5033227;28;20112;-75
2021/10/13 01:03:38;;;;;;;8.52;3.90;;;7.50;92.40;;;;;;5022929;28;20040;-75
2021/10/13 01:06:38;;;;;;;8.15;3.40;;;7.50;92.30;;;;;;5030723;28;20117;-75
2021/10/13 01:09:24;;;;;;;13.93;3.60;;;7.50;92.40;;;;;;5025262;28;20124;-75
2021/10/13 01:11:55;;;;;;;12.18;3.55;;;7.50;92.40;;;;;;5012871;28;20044;-74
2021/10/13 01:14:42;;;;;;;6.35;2.88;;;7.50;92.40;;;;;;5034881;28;20040;-75
2021/10/13 01:17:38;;;;;;;12.05;3.80;;;7.60;92.50;;;;;;5012616;28;20036;-74
2021/10/13 01:20:24;;;;;;;10.50;3.92;;;7.50;92.50;;;;;;5030446;28;20541;-75
2021/10/13 01:23:21;;;;;;;11.38;3.10;;;7.60;92.50;;;;;;5027319;28;20026;-75
2021/10/13 01:26:10;;;;;;;9.77;3.50;;;7.50;92.50;;;;;;5033483;28;20508;-75
2021/10/13 01:28:41;;;;;;;8.75;3.75;;;7.50;92.40;;;;;;5050294;28;20102;-75
2021/10/13 01:31:16;;;;;;;6.40;3.40;;;7.50;92.50;;;;;;5050153;28;20469;-75
2021/10/13 01:34:00;;;;;;;14.15;3.70;;;7.50;92.50;;;;;;5038961;28;20037;-75
2021/10/13 01:36:34;;;;;;;10.38;3.92;;;7.50;92.60;;;;;;5020612;28;20041;-75
2021/10/13 01:39:01;;;;;;;12.02;3.40;;;7.50;92.60;;;;;;5032472;28;20028;-75
2021/10/13 01:41:28;;;;;;;11.15;3.65;;;7.60;92.60;;;;;;5028726;28;20086;-75
2021/10/13 01:43:56;;;;;;;12.07;4.03;;;7.70;92.70;;;;;;5045539;28;20076;-75
2021/10/13 01:46:23;;;;;;;15.80;4.63;;;7.70;92.70;;;;;;5017624;28;20104;-75
2021/10/13 01:48:51;;;;;;;11.30;4.22;;;7.70;92.70;;;;;;5029203;28;20371;-75
2021/10/13 01:51:18;;;;;;;10.80;4.20;;;7.70;92.70;;;;;;5015004;28;20033;-75
2021/10/13 01:53:46;;;;;;;9.52;4.32;;;7.80;92.80;;;;;;5020889;28;20109;-75
2021/10/13 01:56:13;;;;;;;12.53;4.10;;;7.80;92.90;;;;;;5013685;28;20031;-75
2021/10/13 01:58:41;;;;;;;9.32;3.95;;;7.80;92.90;;;;;;5026511;28;20030;-75
2021/10/13 02:01:11;;;;;;;13.55;4.10;;;7.90;92.90;;;;;;5035818;28;20025;-75
2021/10/13 02:03:38;;;;;;;18.75;4.47;;;7.90;92.90;;;;;;5028590;28;20026;-75
2021/10/13 02:06:05;;;;;;;9.75;4.05;;;7.90;92.90;;;;;;4999063;28;20037;-75
2021/10/13 02:08:34;;;;;;;13.15;4.00;;;8.00;93.00;;;;;;5028409;28;20026;-75
2021/10/13 02:11:03;;;;;;;10.90;4.13;;;8.00;93.00;;;;;;5033510;28;20529;-75
2021/10/13 02:13:34;;;;;;;9.40;3.45;;;8.00;93.00;;;;;;5012277;28;20121;-75
2021/10/13 02:16:01;;;;;;;10.45;4.15;;;8.00;93.00;;;;;;5029621;28;20030;-75
2021/10/13 02:18:32;;;;;;;12.88;4.15;;;8.00;93.00;;;;;;4992351;28;20109;-75
2021/10/13 02:21:00;;;;;;;8.73;4.00;;;8.00;93.00;;;;;;5033025;28;20105;-75
2021/10/13 02:23:31;;;;;;;12.18;4.05;;;8.00;93.00;;;;;;5012239;28;20085;-75
2021/10/13 02:26:01;;;;;;;12.60;4.28;;;8.00;93.00;;;;;;5014292;28;20029;-75
2021/10/13 02:28:40;;;;;;;8.50;3.47;;;8.00;93.00;;;;;;5007737;28;20029;-75
2021/10/13 02:31:06;;;;;;;;;;;8.00;93.00;;;;;;5020379;28;20499;-75
2021/10/13 02:33:31;;;;;;;12.95;4.03;;;7.90;92.90;;;;;;5041700;28;19973;-75
2021/10/13 02:35:57;;;;;;;8.30;3.80;;;7.90;93.00;;;;;;4997080;28;20040;-75
2021/10/13 02:38:23;;;;;;;12.98;3.97;;;7.80;93.20;;;;;;5037106;28;20045;-74
2021/10/13 02:40:49;;;;;;;14.00;3.50;;;7.80;93.00;;;;;;5029576;28;20018;-75
2021/10/13 02:43:14;;;;;;;11.48;4.00;;;7.70;93.00;;;;;;5025029;28;20037;-75
2021/10/13 02:45:45;;;;;;;8.32;3.25;;;7.70;92.90;;;;;;5012768;28;20029;-76
2021/10/13 02:48:16;;;;;;;14.02;3.30;;;7.70;93.00;;;;;;4991936;28;20045;-75
2021/10/13 02:50:53;;;;;;;7.30;3.78;;;7.70;93.00;;;;;;5029246;28;20030;-75
2021/10/13 02:53:40;;;;;;;10.25;3.65;;;7.70;93.00;;;;;;5042850;28;20070;-75
2021/10/13 02:56:38;;;;;;;9.32;3.95;;;7.60;93.00;;;;;;5025033;28;20104;-75
2021/10/13 02:59:16;;;;;;;10.98;3.38;;;7.60;93.10;;;;;;5037049;28;20067;-75
2021/10/13 03:01:43;;;;;;;12.50;3.90;;;7.60;93.10;;;;;;5024067;28;20111;-75
2021/10/13 03:04:17;;;;;;;12.45;4.47;;;7.60;93.10;;;;;;5039048;28;20033;-75
2021/10/13 03:06:59;;;;;;;16.23;4.95;;;7.70;93.20;;;;;;5024190;28;20033;-75
2021/10/13 03:09:29;;;;;;;13.77;4.20;;;7.70;93.20;;;;;;5040221;28;20037;-76
2021/10/13 03:11:55;;;;;;;12.38;4.00;;;7.70;93.20;;;;;;5029022;28;20033;-75
2021/10/13 03:14:23;;;;;;;14.27;4.85;;;7.80;93.30;;;;;;5029032;28;20394;-75
2021/10/13 03:16:51;;;;;;;15.20;4.38;;;7.80;93.30;;;;;;5024952;28;20068;-74
2021/10/13 03:19:21;;;;;;;9.07;3.85;;;7.90;93.30;;;;;;5029799;28;20104;-75
2021/10/13 03:21:49;;;;;;;9.07;3.92;;;7.90;93.30;;;;;;5041560;28;20029;-75
2021/10/13 03:24:18;;;;;;;10.50;3.83;;;7.90;93.30;;;;;;5029105;28;20044;-75
2021/10/13 03:26:48;;;;;;;14.48;4.50;;;7.90;93.20;;;;;;5039655;28;20044;-75
2021/10/13 03:29:14;;;;;;;10.60;3.80;;;7.90;93.20;;;;;;5010757;28;20048;-74
2021/10/13 03:31:40;;;;;;;11.80;4.45;;;8.00;93.20;;;;;;5011788;28;20033;-74
2021/10/13 03:34:06;;;;;;;6.97;3.95;;;8.00;93.20;;;;;;5008360;28;20155;-75
2021/10/13 03:36:43;;;;;;;11.25;4.30;;;7.90;93.20;;;;;;5010169;28;20124;-74
2021/10/13 03:39:10;;;;;;;14.23;4.20;;;7.90;93.30;;;;;;5010171;28;20037;-75
2021/10/13 03:41:36;;;;;;;13.20;4.03;;;7.90;93.30;;;;;;5039261;28;20056;-74
2021/10/13 03:44:03;;;;;;;11.48;3.70;;;7.90;93.30;;;;;;5011701;28;20550;-75
2021/10/13 03:46:28;;;;;;;8.23;4.03;;;7.90;93.30;;;;;;5028478;28;20060;-74
2021/10/13 03:48:54;;;;;;;9.85;3.70;;;7.90;93.30;;;;;;5011319;28;20501;-75
2021/10/13 03:51:20;;;;;;;13.45;4.50;;;7.90;93.30;;;;;;5014793;28;20034;-75
2021/10/13 03:53:47;;;;;;;9.02;4.05;;;7.90;93.30;;;;;;5014083;28;20033;-75
2021/10/13 03:56:13;;;;;;;13.38;3.80;;;8.00;93.40;;;;;;5013909;28;20034;-75
2021/10/13 03:58:39;;;;;;;13.02;4.32;;;8.00;93.40;;;;;;5013862;28;20030;-75
2021/10/13 04:01:05;;;;;;;14.20;4.90;;;8.00;93.40;;;;;;5021960;28;20381;-75
2021/10/13 04:03:30;;;;;;;11.27;4.10;;;8.00;93.40;;;;;;5031985;28;20055;-75
2021/10/13 04:05:56;;;;;;;15.13;4.03;;;8.10;93.50;;;;;;5020695;28;20060;-75
2021/10/13 04:08:22;;;;;;;11.85;4.18;;;8.10;93.50;;;;;;5051364;28;20106;-75
2021/10/13 04:10:47;;;;;;;12.98;4.38;;;8.10;93.50;;;;;;5004821;28;20477;-75
2021/10/13 04:13:14;;;;;;;11.88;4.70;;;8.10;93.50;;;;;;5023718;28;20076;-74
2021/10/13 04:15:40;;;;;;;12.38;5.13;;;8.10;93.50;;;;;;5036303;28;20076;-74
2021/10/13 04:18:06;;;;;;;6.78;3.80;;;8.20;93.50;;;;;;5132690;27;20566;-75
2021/10/13 04:20:32;;;;;;;13.07;4.22;;;8.20;93.50;;;;;;5079508;27;20033;-74
2021/10/13 04:22:57;;;;;;;11.90;5.10;;;8.20;93.50;;;;;;5031057;28;20029;-75
2021/10/13 04:25:23;;;;;;;9.70;4.15;;;8.20;93.50;;;;;;5033171;28;20512;-74
2021/10/13 04:27:49;;;;;;;15.73;5.70;;;8.20;93.50;;;;;;5043718;28;20025;-75
2021/10/13 04:30:15;;;;;;;14.65;5.13;;;8.30;93.60;;;;;;5042671;28;20056;-75
2021/10/13 04:32:42;;;;;;;11.98;4.70;;;8.20;93.60;;;;;;5038502;28;20013;-75
2021/10/13 04:35:08;;;;;;;14.75;5.10;;;8.20;93.60;;;;;;5009195;28;20137;-75
2021/10/13 04:37:34;;;;;;;12.73;5.63;;;8.30;93.60;;;;;;5025703;28;20033;-75
2021/10/13 04:39:59;;;;;;;14.93;5.00;;;8.20;93.60;;;;;;5016825;28;20029;-75
2021/10/13 04:42:25;;;;;;;22.75;5.93;;;8.20;93.60;;;;;;5032640;28;20529;-75
2021/10/13 04:44:51;;;;;;;10.18;4.57;;;8.20;93.70;;;;;;5012639;28;20157;-75
2021/10/13 04:47:16;;;;;;;15.00;5.35;;;8.20;93.70;;;;;;5013972;28;20048;-75
2021/10/13 04:49:42;;;;;;;11.00;5.30;;;8.20;93.70;;;;;;5013242;28;20038;-75
2021/10/13 04:52:08;;;;;;;12.52;5.18;;;8.30;93.70;;;;;;5006022;28;20040;-74
2021/10/13 04:54:33;;;;;;;13.38;5.40;;;8.30;93.80;;;;;;5033221;28;20038;-76
2021/10/13 04:56:59;;;;;;;13.27;5.65;;;8.30;93.70;;;;;;5032580;28;20142;-75
2021/10/13 04:59:25;;;;;;;11.00;5.40;;;8.30;93.70;;;;;;5016440;28;20121;-75
2021/10/13 05:01:50;;;;;;;12.68;5.82;;;8.30;93.70;;;;;;5027959;28;20051;-74
2021/10/13 05:04:16;;;;;;;12.57;5.32;;;8.40;93.70;;;;;;5017351;28;20047;-75
2021/10/13 05:06:45;;;;;;;12.57;5.57;;;8.30;93.70;;;;;;5017320;28;20038;-74
2021/10/13 05:09:11;;;;;;;10.95;5.18;;;8.40;93.70;;;;;;5029279;28;20044;-75
2021/10/13 05:11:37;;;;;;;12.10;5.85;;;8.30;93.70;;;;;;5030430;28;20486;-75
2021/10/13 05:14:02;;;;;;;9.60;5.05;;;8.40;93.70;;;;;;5031838;28;20086;-75
2021/10/13 05:16:28;;;;;;;11.43;6.63;;;8.40;93.70;;;;;;5019662;28;20030;-75
2021/10/13 05:18:54;;;;;;;10.50;5.38;;;8.40;93.70;;;;;;5047506;28;20021;-75
2021/10/13 05:21:19;;;;;;;15.32;6.20;;;8.40;93.70;;;;;;5029880;28;20022;-75
2021/10/13 05:23:45;;;;;;;13.85;5.97;;;8.40;93.70;;;;;;5013265;28;20098;-75
2021/10/13 05:26:11;;;;;;;12.55;6.28;;;8.40;93.70;;;;;;5013340;28;20424;-75
2021/10/13 05:28:36;;;;;;;11.25;5.40;;;8.40;93.70;;;;;;5019469;28;20033;-75
2021/10/13 05:31:02;;;;;;;10.48;5.97;;;8.40;93.70;;;;;;5017347;28;20128;-75
2021/10/13 05:33:28;;;;;;;12.10;4.95;;;8.40;93.70;;;;;;5059761;28;20045;-75
2021/10/13 05:35:54;;;;;;;12.55;5.82;;;8.40;93.70;;;;;;5031144;28;20044;-75
2021/10/13 05:38:20;;;;;;;18.60;5.50;;;8.40;93.70;;;;;;5033098;28;20473;-75
2021/10/13 05:40:45;;;;;;;9.90;6.20;;;8.40;93.80;;;;;;5050271;28;20100;-75
2021/10/13 05:43:11;;;;;;;14.38;6.75;;;8.50;93.80;;;;;;5032705;28;20029;-75
2021/10/13 05:45:36;;;;;;;12.55;6.35;;;8.40;93.80;;;;;;5018499;28;20026;-75
2021/10/13 05:48:02;;;;;;;16.90;6.50;;;8.40;93.80;;;;;;5045232;28;20381;-75
2021/10/13 05:50:28;;;;;;;11.98;6.38;;;8.40;93.80;;;;;;5028715;28;20038;-75
2021/10/13 05:52:54;;;;;;;12.32;6.57;;;8.50;93.90;;;;;;5012664;28;20543;-75
2021/10/13 05:55:19;;;;;;;17.67;6.32;;;8.40;93.80;;;;;;5030200;28;20036;-75
2021/10/13 05:57:45;;;;;;;15.23;6.45;;;8.50;93.90;;;;;;5030419;28;20057;-75
2021/10/13 06:00:11;;;;;;;16.77;7.00;;;8.50;93.90;;;;;;5012670;28;20486;-75
2021/10/13 06:02:37;;;;;;;12.43;5.60;;;8.50;93.90;;;;;;5012159;28;20044;-75
2021/10/13 06:05:04;;;;;;;17.88;7.10;;;8.50;93.90;;;;;;5012661;28;20026;-75
2021/10/13 06:07:30;;;;;;;16.70;7.35;;;8.50;93.90;;;;;;4995976;28;20033;-75
2021/10/13 06:09:56;;;;;;;13.77;6.40;;;8.50;94.00;;;;;;5014003;28;20120;-75
2021/10/13 06:12:21;;;;;;;15.02;5.57;;;8.50;94.00;;;;;;5027054;28;20118;-75
2021/10/13 06:14:47;;;;;;;12.00;5.72;;;8.50;94.00;;;;;;5029279;28;20080;-75
2021/10/13 06:17:12;;;;;;;15.68;5.80;;;8.50;94.00;;;;;;5008933;28;20026;-75
2021/10/13 06:19:38;;;;;;;17.75;6.70;;;8.60;94.30;;;;;;5028946;28;20529;-75
2021/10/13 06:22:07;;;;;;;12.23;5.63;;;8.50;93.90;;;;;;5085836;27;20045;-75
2021/10/13 06:24:33;;;;;;;13.13;6.20;;;8.60;94.00;;;;;;5061093;27;20113;-75
2021/10/13 06:26:58;;;;;;;14.70;5.70;;;8.60;94.00;;;;;;5025565;28;20045;-75
2021/10/13 06:29:25;;;;;;;11.30;5.85;;;8.60;94.00;;;;;;5009861;28;20098;-75
2021/10/13 06:31:50;;;;;;;20.45;7.57;;;8.60;94.00;;;;;;5010545;28;20549;-75
2021/10/13 06:34:16;;;;;;;11.52;6.40;;;8.70;94.00;;;;;;5027078;28;20057;-75
2021/10/13 06:36:42;;;;;;;16.90;6.13;;;8.70;93.90;;;;;;5027490;28;20073;-74
2021/10/13 06:39:08;;;;;;;14.95;6.13;;;8.70;93.90;;;;;;5026991;28;20120;-75
2021/10/13 06:41:34;;;;;;;11.30;6.25;;;8.70;93.90;;;;;;5010474;28;20666;-75
2021/10/13 06:43:59;;;;;;;10.70;5.00;;;8.70;93.90;;;;;;5028363;28;20075;-74
2021/10/13 06:46:26;;;;;;;10.73;5.93;;;8.80;94.20;;;;;;5029083;28;20025;-75
2021/10/13 06:48:52;;;;;;;11.05;6.40;;;8.80;93.90;;;;;;5011647;28;20052;-75
2021/10/13 06:51:18;;;;;;;10.65;4.97;;;8.80;93.90;;;;;;5011653;28;20029;-75
2021/10/13 06:53:46;;;;;;;14.48;6.78;;;8.90;93.90;;;;;;5011389;28;20029;-75
2021/10/13 06:56:13;;;;;;;15.77;6.05;;;8.90;93.90;;;;;;5029389;28;20021;-74
2021/10/13 06:58:38;;;;;;;10.35;5.75;;;8.90;93.90;;;;;;5011142;28;20554;-75
2021/10/13 07:01:04;;;;;;;10.35;5.53;;;8.90;93.90;;;;;;5028757;28;20041;-75
2021/10/13 07:03:30;;;;;;;12.73;6.55;;;9.00;93.90;;;;;;4995184;28;20548;-75
2021/10/13 07:05:55;;;;;;;16.95;5.32;;;9.00;93.90;;;;;;5011092;28;20038;-75
2021/10/13 07:08:21;;;;;;;10.60;5.30;;;9.00;93.90;;;;;;5011317;28;20079;-75
2021/10/13 07:10:47;;;;;;;12.82;5.93;;;9.00;93.80;;;;;;5011789;28;20029;-75
2021/10/13 07:13:13;;;;;;;15.73;5.90;;;9.10;93.90;;;;;;5011353;28;20049;-75
2021/10/13 07:15:38;;;;;;;14.13;6.30;;;9.10;93.80;;;;;;4995044;28;20080;-75
2021/10/13 07:18:04;;;;;;;15.57;5.30;;;9.10;93.80;;;;;;4994821;28;20047;-75
2021/10/13 07:20:30;;;;;;;14.18;5.60;;;9.20;93.80;;;;;;5011486;28;20068;-75
2021/10/13 07:22:55;;;;;;;11.02;5.05;;;9.20;93.80;;;;;;5011516;28;20053;-75
2021/10/13 07:25:25;;;;;;;10.80;4.70;;;9.20;93.80;;;;;;5014117;28;20389;-75
2021/10/13 07:27:52;;;;;;;10.55;4.90;;;9.30;93.80;;;;;;5032793;28;20033;-75
2021/10/13 07:30:22;;;;;;;15.57;6.05;;;9.20;93.80;;;;;;5032629;28;20030;-75
2021/10/13 07:32:48;;;;;;;10.07;5.00;;;9.30;93.80;;;;;;5032305;28;20017;-75
2021/10/13 07:35:14;;;;;;;15.05;5.45;;;9.30;93.80;;;;;;5019501;28;20058;-75
2021/10/13 07:37:39;;;;;;;11.48;5.05;;;9.40;93.90;;;;;;5028940;28;20489;-75
2021/10/13 07:40:06;;;;;;;12.32;4.50;;;9.40;93.90;;;;;;5032236;28;20090;-75
2021/10/13 07:42:33;;;;;;;15.18;5.13;;;9.40;93.90;;;;;;5014226;28;20021;-75
2021/10/13 07:44:59;;;;;;;9.27;4.47;;;9.50;93.90;;;;;;5014393;28;20058;-75
2021/10/13 07:47:24;;;;;;;10.60;4.47;;;9.60;94.10;;;;;;4998080;28;20033;-75
2021/10/13 07:49:50;;;;;;;9.45;4.13;;;9.60;93.80;;;;;;5014813;28;20034;-76
2021/10/13 07:52:16;;;;;;;15.07;5.45;;;9.70;93.70;;;;;;5031175;28;20033;-75
2021/10/13 07:54:42;;;;;;;12.48;5.30;;;9.70;93.70;;;;;;5031073;28;20406;-75
2021/10/13 07:57:07;;;;;;;8.25;4.35;;;9.80;93.70;;;;;;5014257;28;20389;-75
2021/10/13 07:59:33;;;;;;;9.63;4.78;;;9.80;93.70;;;;;;5014330;28;20048;-76
2021/10/13 08:01:59;;;;;;;11.85;4.90;;;9.90;93.70;;;;;;5031897;28;20022;-76
2021/10/13 08:04:25;;;;;;;12.20;4.05;;;9.90;93.70;;;;;;5014374;28;20371;-75
2021/10/13 08:06:52;;;;;;;10.23;4.57;;;10.00;93.70;;;;;;5032293;28;20065;-75
2021/10/13 08:09:18;;;;;;;8.95;4.10;;;10.10;93.70;;;;;;5032229;28;20112;-76
2021/10/13 08:11:44;;;;;;;12.18;4.82;;;10.10;93.70;;;;;;5014498;28;20061;-76
2021/10/13 08:14:10;;;;;;;15.18;4.47;;;10.20;93.70;;;;;;5013232;28;20049;-75
2021/10/13 08:16:35;;;;;;;9.93;4.07;;;10.30;93.70;;;;;;5023751;28;20030;-76
2021/10/13 08:19:01;;;;;;;13.65;5.68;;;10.30;93.60;;;;;;5006664;28;20073;-76
2021/10/13 08:21:27;;;;;;;9.07;4.30;;;10.30;93.50;;;;;;5025059;28;20063;-75
2021/10/13 08:23:53;;;;;;;9.10;4.03;;;10.30;93.50;;;;;;5029116;28;20029;-76
2021/10/13 08:26:18;;;;;;;15.60;4.18;;;10.40;93.60;;;;;;5046517;28;20037;-76
2021/10/13 08:28:44;;;;;;;7.22;3.95;;;10.50;93.60;;;;;;5030212;28;20604;-75
2021/10/13 08:31:10;;;;;;;8.60;3.75;;;10.50;93.60;;;;;;5031715;28;20030;-76
2021/10/13 08:33:35;;;;;;;6.68;3.40;;;10.70;93.60;;;;;;5031223;28;20498;-76
2021/10/13 08:36:01;;;;;;;9.52;3.95;;;10.80;93.60;;;;;;5030124;28;20514;-76
2021/10/13 08:38:27;;;;;;;10.50;3.75;;;10.90;93.40;;;;;;5031103;28;20560;-75
2021/10/13 08:40:53;;;;;;;12.05;4.50;;;11.00;93.20;;;;;;5013798;28;20033;-76
2021/10/13 08:43:18;;;;;;;14.38;4.40;;;11.20;93.20;;;;;;5013754;28;20034;-75
2021/10/13 08:45:44;;;;;;;11.45;4.35;;;11.30;93.20;;;;;;5013821;28;20347;-75
2021/10/13 08:48:10;;;;;;;10.43;3.80;;;11.40;93.10;;;;;;5013517;28;20022;-75
2021/10/13 08:50:37;;;;;;;8.35;3.60;;;11.40;93.00;;;;;;5013411;28;20022;-75
2021/10/13 08:53:08;;;;;;;10.73;4.05;;;11.50;92.80;;;;;;5030943;28;20067;-76
2021/10/13 08:55:35;;;;;;;9.50;4.57;;;11.60;92.80;;;;;;5013192;28;20033;-76
2021/10/13 08:58:16;;;;;;;13.13;4.18;;;11.70;92.70;;;;;;5029722;28;20394;-75
2021/10/13 09:00:44;;;;;;;14.68;3.67;;;11.80;92.70;;;;;;5030964;28;20486;-75
2021/10/13 09:03:26;;;;;;;13.70;3.37;;;11.80;92.50;;;;;;5013192;28;20036;-76
2021/10/13 09:05:52;;;;;;;8.05;3.40;;;11.90;92.40;;;;;;5029289;28;20030;-75
2021/10/13 09:08:18;;;;;;;7.90;3.63;;;12.00;92.40;;;;;;5027851;28;20038;-75
2021/10/13 09:10:44;;;;;;;11.13;3.25;;;12.00;92.30;;;;;;5010639;28;20037;-75
2021/10/13 09:13:17;;;;;;;9.65;3.15;;;12.00;92.30;;;;;;5010553;28;20497;-75
2021/10/13 09:15:54;;;;;;;8.65;3.03;;;12.10;92.20;;;;;;5010839;28;20106;-76
2021/10/13 09:18:22;;;;;;;9.20;2.80;;;12.00;92.10;;;;;;5010567;28;20022;-76
2021/10/13 09:20:50;;;;;;;11.23;3.35;;;12.10;92.00;;;;;;5029898;28;20097;-75
2021/10/13 09:23:20;;;;;;;8.85;2.75;;;12.20;92.00;;;;;;5027657;28;20705;-76
2021/10/13 09:26:07;;;;;;;12.52;3.13;;;12.20;92.00;;;;;;5028185;28;20638;-75
2021/10/13 09:28:33;;;;;;;6.13;3.03;;;12.30;92.00;;;;;;5027869;28;20029;-76
2021/10/13 09:31:28;;;;;;;13.95;3.00;;;12.40;91.90;;;;;;5010412;28;20033;-76
2021/10/13 09:33:59;;;;;;;8.98;2.60;;;12.40;91.90;;;;;;5027913;28;20053;-76
2021/10/13 09:36:43;;;;;;;7.95;3.00;;;12.40;91.70;;;;;;5013679;28;20546;-78
2021/10/13 09:39:17;;;;;;;8.27;3.10;;;12.40;91.60;;;;;;5027788;28;20038;-78
2021/10/13 09:42:08;;;;;;;8.02;3.10;;;12.40;91.60;;;;;;4999264;28;20032;-78
2021/10/13 09:44:37;;;;;;;9.27;3.33;;;12.40;91.50;;;;;;5024063;28;20034;-79
2021/10/13 09:47:09;;;;;;;9.52;2.90;;;12.50;91.50;;;;;;5021635;28;20025;-77
2021/10/13 09:49:49;;;;;;;7.57;3.30;;;12.50;91.50;;;;;;5028585;28;20651;-78
2021/10/13 09:52:17;;;;;;;8.15;3.10;;;12.60;91.40;;;;;;5021876;28;20389;-77
2021/10/13 09:54:46;;;;;;;6.25;2.88;;;12.70;91.20;;;;;;5012274;28;20081;-77
2021/10/13 09:57:26;;;;;;;7.47;3.22;;;12.70;91.20;;;;;;5030230;28;20385;-78
2021/10/13 09:59:57;;;;;;;7.47;3.00;;;12.80;91.20;;;;;;5028255;28;20029;-76
2021/10/13 10:02:25;;;;;;;9.70;2.95;;;13.00;91.10;;;;;;5045863;28;20063;-78
2021/10/13 10:04:52;;;;;;;7.20;2.63;;;13.10;90.90;;;;;;5035548;28;20025;-77
2021/10/13 10:07:21;;;;;;;6.63;2.40;;;13.20;90.80;;;;;;5044285;28;20064;-77
2021/10/13 10:10:05;;;;;;;13.52;2.38;;;13.20;90.70;;;;;;5012509;28;20078;-78
2021/10/13 10:12:58;;;;;;;7.57;2.60;;;13.20;90.60;;;;;;5029979;28;20026;-77
2021/10/13 10:15:33;;;;;;;7.60;2.67;;;13.20;90.60;;;;;;5014294;28;20401;-77
2021/10/13 10:18:00;;;;;;;5.93;2.67;;;13.40;90.60;;;;;;5030432;28;20032;-77
2021/10/13 10:20:41;;;;;;;9.50;2.47;;;13.40;90.40;;;;;;5001936;28;20034;-77
2021/10/13 10:23:26;;;;;;;6.80;3.00;;;13.50;90.30;;;;;;5011607;28;20029;-76
2021/10/13 10:25:52;;;;;;;8.20;2.67;;;13.60;90.20;;;;;;5011346;28;20036;-76
2021/10/13 10:28:52;;;;;;;6.47;2.42;;;13.70;90.10;;;;;;5031064;28;20670;-76
2021/10/13 10:31:29;;;;;;;8.43;2.40;;;13.70;90.10;;;;;;5011289;28;20025;-76
2021/10/13 10:34:06;;;;;;;7.35;2.42;;;13.60;90.00;;;;;;5028657;28;20048;-76
2021/10/13 10:36:35;;;;;;;7.70;2.67;;;13.60;89.80;;;;;;5046625;28;20033;-76
2021/10/13 10:39:05;;;;;;;10.50;2.92;;;13.60;89.80;;;;;;5043208;28;20029;-76
2021/10/13 10:41:52;;;;;;;9.10;2.65;;;13.70;89.60;;;;;;5044415;28;20025;-76
2021/10/13 10:44:30;;;;;;;6.65;2.30;;;13.90;89.00;;;;;;5034712;28;20178;-76
2021/10/13 10:47:01;;;;;;;6.43;2.40;;;14.10;88.20;;;;;;5019107;28;20029;-76
2021/10/13 10:49:51;;;;;;;7.70;2.45;;;14.20;88.00;;;;;;5037901;27;20516;-76
2021/10/13 10:52:26;;;;;;;6.00;2.20;;;14.20;87.30;;;;;;5022502;28;20042;-76
2021/10/13 10:54:52;;;;;;;8.40;2.50;;;14.20;87.40;;;;;;5005125;28;20041;-76
2021/10/13 10:57:30;;;;;;;10.57;1.98;;;14.20;87.50;;;;;;5019302;28;20033;-86
2021/10/13 10:59:56;;;;;;;5.72;2.33;;;14.10;87.30;;;;;;5028916;28;20105;-77
2021/10/13 11:02:24;;;;;;;11.50;2.80;;;14.10;87.30;;;;;;5013180;28;20512;-77
2021/10/13 11:05:11;;;;;;;6.78;2.42;;;14.00;86.90;;;;;;5013292;28;20074;-77
2021/10/13 11:07:38;;;;;;;9.32;2.83;;;14.10;87.50;;;;;;5002874;28;20034;-79
2021/10/13 11:10:09;;;;;;;5.13;2.03;;;14.20;87.50;;;;;;5016399;28;20124;-79
2021/10/13 11:12:57;;;;;;;8.35;2.60;;;14.40;87.20;;;;;;5017802;28;20029;-79
2021/10/13 11:15:25;;;;;;;7.78;2.10;;;14.50;86.20;;;;;;5024969;28;20049;-79
2021/10/13 11:17:51;;;;;;;6.53;2.03;;;14.50;86.00;;;;;;5024437;28;20026;-79
2021/10/13 11:20:25;;;;;;;9.40;2.08;;;14.50;85.30;;;;;;5028421;28;20049;-80
2021/10/13 11:23:06;;;;;;;5.13;2.13;;;14.40;85.80;;;;;;5036104;28;20043;-79
2021/10/13 11:25:32;;;;;;;8.85;1.80;;;14.20;85.20;;;;;;5059860;27;20022;-79
2021/10/13 11:28:10;;;;;;;11.30;1.88;;;14.20;85.60;;;;;;5011725;28;20037;-79
2021/10/13 11:30:55;;;;;;;6.30;1.45;;;14.10;86.00;;;;;;5029129;28;20021;-79
2021/10/13 11:33:21;;;;;;;12.40;1.70;;;14.20;85.50;;;;;;5044652;28;20052;-79
2021/10/13 11:35:49;;;;;;;9.52;1.80;;;14.20;85.50;;;;;;5029808;28;20022;-80
2021/10/13 11:38:17;;;;;;;5.40;1.63;;;14.20;85.70;;;;;;5029899;28;20105;-80
2021/10/13 11:40:43;;;;;;;5.72;2.38;;;14.20;86.10;;;;;;5012504;28;20047;-80
2021/10/13 11:43:16;;;;;;;8.40;1.60;;;14.20;85.50;;;;;;5011581;28;20033;-80
2021/10/13 11:45:53;;;;;;;6.97;1.30;;;14.20;85.50;;;;;;5029413;28;20025;-80
2021/10/13 11:48:27;;;;;;;5.90;1.27;;;14.30;85.10;;;;;;5029845;28;20018;-80
2021/10/13 11:50:54;;;;;;;5.90;1.50;;;14.20;84.80;;;;;;5029257;28;20037;-79
2021/10/13 11:53:21;;;;;;;5.90;1.40;;;14.20;84.60;;;;;;5008138;28;20026;-79
2021/10/13 11:55:47;;;;;;;6.88;1.58;;;14.20;84.00;;;;;;5018529;28;20030;-79
2021/10/13 11:58:29;;;;;;;5.63;1.58;;;14.20;84.10;;;;;;5012045;28;20063;-79
2021/10/13 12:00:56;;;;;;;5.97;1.70;;;14.20;84.40;;;;;;5012071;28;20030;-79
2021/10/13 12:03:33;;;;;;;7.80;1.88;;;14.20;84.60;;;;;;5029454;28;20510;-79
2021/10/13 12:05:59;;;;;;;6.68;1.73;;;14.20;84.70;;;;;;5011230;28;20034;-79
2021/10/13 12:08:42;;;;;;;8.27;1.60;;;14.20;85.40;;;;;;5011453;28;20029;-79
2021/10/13 12:11:22;;;;;;;7.35;1.88;;;14.20;85.30;;;;;;4997617;28;20120;-79
2021/10/13 12:13:51;;;;;;;9.35;1.85;;;14.20;84.60;;;;;;5032863;28;20071;-79
2021/10/13 12:16:24;;;;;;;;;;;14.20;85.30;;;;;;5033204;28;20458;-79
2021/10/13 12:18:50;;;;;;;4.70;1.20;;;14.30;84.30;;;;;;5014856;28;19998;-80
2021/10/13 12:21:18;;;;;;;6.80;1.05;;;14.40;83.40;;;;;;5032556;28;20533;-80
2021/10/13 12:23:49;;;;;;;11.95;1.40;;;14.50;82.70;;;;;;5032130;28;20033;-80
2021/10/13 12:26:18;;;;;;;8.93;1.15;;;14.70;82.30;;;;;;5014543;28;20034;-80
2021/10/13 12:28:45;;;;;;;6.72;1.30;;;14.90;81.80;;;;;;5032227;28;20049;-80
2021/10/13 12:31:16;;;;;;;9.77;1.73;;;15.10;81.40;;;;;;4998121;28;20040;-80
2021/10/13 12:33:44;;;;;;;8.00;1.65;;;15.30;80.80;;;;;;5010420;28;20050;-80
2021/10/13 12:36:33;;;;;;;5.03;1.60;;;15.30;80.90;;;;;;5010763;28;20041;-80
2021/10/13 12:39:06;;;;;;;8.93;1.60;;;15.40;80.50;;;;;;5015740;28;20065;-80
2021/10/13 12:41:34;;;;;;;6.22;1.30;;;15.40;80.30;;;;;;5010810;28;20033;-80
2021/10/13 12:44:10;;;;;;;4.65;1.13;;;15.30;80.50;;;;;;5012089;28;20069;-81
2021/10/13 12:46:36;;;;;;;7.05;1.30;;;15.30;80.40;;;;;;5024085;28;20044;-80
2021/10/13 12:49:18;;;;;;;4.80;1.05;;;15.30;80.60;;;;;;5027617;28;20030;-80
2021/10/13 12:52:00;;;;;;;6.40;1.40;;;15.30;80.40;;;;;;5030617;28;20386;-81
2021/10/13 12:54:26;;;;;;;3.90;0.90;;;15.30;79.60;;;;;;5031747;28;20030;-81
2021/10/13 12:56:52;;;;;;;8.20;1.00;;;15.30;79.30;;;;;;5030495;28;20029;-80
2021/10/13 12:59:17;;;;;;;4.25;0.80;;;15.30;79.00;;;;;;4975204;28;20033;-80